Time;durP1;ratioP1;P1;durP2;ratioP2;P2;SDS_P1;SDS_P2;PMS_P1;PMS_P2;Temp;Humidity;BMP_temperature;BMP_pressure;BME280_temperature;BME280_humidity;BME280_pressure;Samples;Min_cycle;Max_cycle;Signal;HPM_P1;HPM_P2
2022/04/23 00:01:18;;;;;;;12.23;7.97;;;;;;;;;;5030527;28;20441;-64
2022/04/23 00:03:44;;;;;;;16.73;8.43;;;;;;;;;;5023147;28;20432;-64
2022/04/23 00:06:10;;;;;;;15.23;8.90;;;;;;;;;;5024570;28;20484;-64
2022/04/23 00:08:36;;;;;;;12.23;8.93;;;;;;;;;;5028618;28;20481;-63
2022/04/23 00:11:02;;;;;;;12.45;9.80;;;;;;;;;;5031067;28;20911;-64
2022/04/23 00:13:28;;;;;;;14.70;10.35;;;;;;;;;;5033447;28;20430;-64
2022/04/23 00:15:54;;;;;;;13.75;10.48;;;11.60;99.90;;;;;;5026506;28;20427;-64
2022/04/23 00:18:20;;;;;;;13.37;10.30;;;;;;;;;;5023675;28;20576;-64
2022/04/23 00:20:46;;;;;;;13.32;11.15;;;;;;;;;;5026876;28;20474;-65
2022/04/23 00:23:13;;;;;;;13.53;10.93;;;;;;;;;;5017402;28;20473;-66
2022/04/23 00:25:39;;;;;;;14.68;11.35;;;;;;;;;;5026642;28;20522;-65
2022/04/23 00:28:06;;;;;;;18.08;11.73;;;;;;;;;;5027635;28;20487;-64
2022/04/23 00:30:33;;;;;;;14.30;11.65;;;;;;;;;;5036942;28;20419;-63
2022/04/23 00:33:00;;;;;;;15.48;11.77;;;;;;;;;;5028991;28;20434;-64
2022/04/23 00:35:26;;;;;;;13.98;11.30;;;;;;;;;;5020104;28;20431;-64
2022/04/23 00:37:52;;;;;;;14.70;10.90;;;;;;;;;;5023360;28;20474;-64
2022/04/23 00:40:18;;;;;;;16.20;11.18;;;;;;;;;;5029766;28;20431;-64
2022/04/23 00:42:50;;;;;;;18.77;11.17;;;;;;;;;;5025277;28;20578;-64
2022/04/23 00:45:17;;;;;;;14.35;10.35;;;;;;;;;;5023442;28;20434;-64
2022/04/23 00:47:43;;;;;;;15.88;10.13;;;;;;;;;;5017733;28;20430;-64
2022/04/23 00:50:09;;;;;;;13.97;10.17;;;11.60;99.90;;;;;;5016326;28;20482;-63
2022/04/23 00:52:36;;;;;;;12.80;9.45;;;;;;;;;;5032595;28;20760;-65
2022/04/23 00:55:04;;;;;;;15.15;9.88;;;11.30;99.90;;;;;;5028289;28;20426;-63
2022/04/23 00:57:30;;;;;;;15.38;10.05;;;11.50;99.90;;;;;;5022752;28;20422;-66
2022/04/23 00:59:57;;;;;;;13.45;9.27;;;;;;;;;;5025590;28;21922;-64
2022/04/23 01:02:23;;;;;;;13.70;9.85;;;;;;;;;;5031099;28;20426;-64
2022/04/23 01:04:49;;;;;;;15.68;9.02;;;;;;;;;;5018919;28;20433;-63
2022/04/23 01:07:15;;;;;;;12.95;9.57;;;;;;;;;;5031683;28;20430;-63
2022/04/23 01:09:44;;;;;;;14.52;9.73;;;;;;;;;;5024252;28;20432;-64
2022/04/23 01:12:14;;;;;;;16.42;9.95;;;;;;;;;;5023667;28;20435;-63
2022/04/23 01:15:03;;;;;;;14.37;9.80;;;10.80;99.90;;;;;;5025300;28;20407;-64
2022/04/23 01:17:30;;;;;;;15.27;10.07;;;;;;;;;;5034478;28;20425;-64
2022/04/23 01:19:56;;;;;;;16.50;10.05;;;;;;;;;;5027596;28;20484;-63
2022/04/23 01:22:25;;;;;;;14.85;10.18;;;;;;;;;;5025206;28;20483;-64
2022/04/23 01:24:52;;;;;;;15.07;10.40;;;;;;;;;;5024069;28;20427;-63
2022/04/23 01:27:19;;;;;;;18.13;11.40;;;;;;;;;;5018503;28;20430;-64
2022/04/23 01:29:45;;;;;;;15.68;10.98;;;;;;;;;;5035571;28;20419;-63
2022/04/23 01:32:12;;;;;;;17.38;11.00;;;;;;;;;;5025240;28;20418;-64
2022/04/23 01:34:38;;;;;;;15.40;10.82;;;;;;;;;;5025218;28;20491;-65
2022/04/23 01:37:04;;;;;;;16.42;10.85;;;;;;;;;;5023430;28;20448;-64
2022/04/23 01:39:30;;;;;;;15.70;11.13;;;;;;;;;;5030360;28;20866;-64
2022/04/23 01:41:56;;;;;;;17.85;11.88;;;;;;;;;;5026995;28;20431;-63
2022/04/23 01:44:22;;;;;;;16.30;11.73;;;;;;;;;;5026651;28;20429;-64
2022/04/23 01:46:48;;;;;;;15.33;11.23;;;;;;;;;;5038443;28;20472;-64
2022/04/23 01:49:14;;;;;;;16.88;12.25;;;;;;;;;;5022360;28;20437;-64
2022/04/23 01:51:40;;;;;;;17.17;11.43;;;;;;;;;;5025706;28;20413;-64
2022/04/23 01:54:06;;;;;;;14.75;11.55;;;;;;;;;;5029080;28;20498;-63
2022/04/23 01:56:32;;;;;;;16.42;12.18;;;;;;;;;;5034851;28;20487;-64
2022/04/23 01:58:59;;;;;;;16.40;11.70;;;;;;;;;;5024818;28;20454;-63
2022/04/23 02:01:25;;;;;;;17.48;12.20;;;;;;;;;;5035308;28;20439;-64
2022/04/23 02:03:51;;;;;;;17.55;12.10;;;;;;;;;;5025435;28;20487;-64
2022/04/23 02:06:18;;;;;;;16.63;12.30;;;;;;;;;;5025237;28;20440;-64
2022/04/23 02:08:43;;;;;;;16.23;13.13;;;9.90;99.90;;;;;;5036373;28;20419;-65
2022/04/23 02:11:09;;;;;;;18.83;12.53;;;;;;;;;;5029278;28;20513;-64
2022/04/23 02:13:36;;;;;;;19.48;12.98;;;;;;;;;;5033911;28;20778;-64
2022/04/23 02:16:04;;;;;;;16.25;12.93;;;9.80;99.90;;;;;;5022264;28;20495;-64
2022/04/23 02:18:31;;;;;;;16.75;12.57;;;;;;;;;;5027276;28;21159;-64
2022/04/23 02:20:57;;;;;;;18.47;12.93;;;;;;;;;;5026762;28;20431;-63
2022/04/23 02:23:23;;;;;;;18.25;13.02;;;9.90;99.90;;;;;;5029681;28;20415;-64
2022/04/23 02:25:49;;;;;;;18.77;13.40;;;;;;;;;;5024487;28;20793;-64
2022/04/23 02:28:15;;;;;;;18.20;12.90;;;;;;;;;;5033446;28;20434;-64
2022/04/23 02:30:41;;;;;;;18.60;13.40;;;;;;;;;;5031210;28;20419;-63
2022/04/23 02:33:07;;;;;;;18.17;13.68;;;9.50;99.90;;;;;;5030806;28;20427;-63
2022/04/23 02:35:34;;;;;;;17.63;13.47;;;9.80;99.90;;;;;;5031223;28;20491;-64
2022/04/23 02:38:01;;;;;;;17.85;13.80;;;;;;;;;;5031553;28;20466;-63
2022/04/23 02:40:31;;;;;;;17.27;13.38;;;;;;;;;;5022589;28;20505;-64
2022/04/23 02:42:57;;;;;;;21.92;14.45;;;;;;;;;;5031749;28;21902;-64
2022/04/23 02:45:25;;;;;;;22.10;14.68;;;;;;;;;;5020893;28;20471;-64
2022/04/23 02:47:55;;;;;;;19.55;14.27;;;;;;;;;;5020094;28;20436;-64
2022/04/23 02:50:38;;;;;;;19.50;14.80;;;9.50;99.90;;;;;;5025765;28;20465;-64
2022/04/23 02:53:05;;;;;;;19.35;14.60;;;;;;;;;;5024897;28;20435;-64
2022/04/23 02:55:32;;;;;;;21.87;14.67;;;;;;;;;;5024627;28;20447;-64
2022/04/23 02:58:07;;;;;;;18.57;14.80;;;;;;;;;;5024758;28;20433;-64
2022/04/23 03:00:33;;;;;;;18.95;14.45;;;;;;;;;;5020998;28;20452;-65
2022/04/23 03:02:59;;;;;;;19.52;14.73;;;9.40;99.90;;;;;;5030763;28;20486;-64
2022/04/23 03:05:26;;;;;;;22.50;15.07;;;;;;;;;;5022760;28;20433;-65
2022/04/23 03:07:55;;;;;;;21.85;15.68;;;;;;;;;;5016366;28;20421;-64
2022/04/23 03:10:21;;;;;;;19.88;15.05;;;;;;;;;;5010441;28;20432;-64
2022/04/23 03:12:47;;;;;;;19.17;15.17;;;;;;;;;;5031422;28;20431;-64
2022/04/23 03:15:16;;;;;;;22.30;15.60;;;;;;;;;;5032037;28;20950;-63
2022/04/23 03:17:43;;;;;;;20.33;15.10;;;;;;;;;;5025234;28;20427;-64
2022/04/23 03:20:10;;;;;;;19.33;15.32;;;9.30;99.90;;;;;;5034791;28;20425;-63
2022/04/23 03:22:43;;;;;;;20.60;15.23;;;;;;;;;;5020972;28;20439;-64
2022/04/23 03:25:11;;;;;;;20.00;15.23;;;;;;;;;;5025748;28;20445;-64
2022/04/23 03:27:37;;;;;;;21.23;15.50;;;;;;;;;;5023910;28;20440;-64
2022/04/23 03:30:04;;;;;;;20.30;15.05;;;;;;;;;;5034566;28;20446;-64
2022/04/23 03:32:31;;;;;;;20.20;15.93;;;;;;;;;;5026990;28;20761;-64
2022/04/23 03:34:59;;;;;;;22.10;15.50;;;;;;;;;;5035731;28;20523;-64
2022/04/23 03:37:25;;;;;;;19.50;15.18;;;9.20;99.90;;;;;;5026651;28;20433;-64
2022/04/23 03:39:51;;;;;;;23.25;15.68;;;;;;;;;;5030076;28;20427;-64
2022/04/23 03:42:17;;;;;;;21.63;15.57;;;;;;;;;;5035980;28;20436;-63
2022/04/23 03:44:43;;;;;;;21.40;15.57;;;;;;;;;;5026156;28;20420;-64
2022/04/23 03:47:09;;;;;;;20.10;14.97;;;;;;;;;;5015187;28;20509;-64
2022/04/23 03:49:35;;;;;;;18.35;14.90;;;;;;;;;;5019923;28;20426;-64
2022/04/23 03:52:01;;;;;;;18.45;14.85;;;;;;;;;;5030146;28;20708;-65
2022/04/23 03:54:27;;;;;;;19.85;15.55;;;;;;;;;;5028524;28;20427;-63
2022/04/23 03:56:54;;;;;;;21.48;14.75;;;;;;;;;;5031584;28;20430;-64
2022/04/23 03:59:23;;;;;;;18.83;14.73;;;;;;;;;;5026513;28;20436;-63
2022/04/23 04:01:54;;;;;;;20.48;15.05;;;;;;;;;;5029152;28;20445;-63
2022/04/23 04:04:20;;;;;;;18.75;14.50;;;;;;;;;;5032310;28;20421;-64
2022/04/23 04:06:45;;;;;;;18.05;14.15;;;9.10;99.90;;;;;;5029848;28;20435;-64
2022/04/23 04:09:12;;;;;;;17.47;14.60;;;;;;;;;;5024052;28;20410;-63
2022/04/23 04:14:23;;;;;;;18.92;13.70;;;9.10;99.90;;;;;;5031870;28;20440;-64
2022/04/23 04:16:50;;;;;;;19.63;13.98;;;;;;;;;;5025857;28;20422;-65
2022/04/23 04:19:16;;;;;;;19.38;14.13;;;;;;;;;;5013482;28;20408;-63
2022/04/23 04:21:43;;;;;;;17.77;13.68;;;;;;;;;;5036725;28;20435;-64
2022/04/23 04:24:12;;;;;;;17.38;13.95;;;;;;;;;;5023475;28;20428;-64
2022/04/23 04:26:39;;;;;;;17.10;13.68;;;;;;;;;;5027419;28;20496;-64
2022/04/23 04:29:05;;;;;;;16.75;14.15;;;;;;;;;;5021080;28;20442;-63
2022/04/23 04:31:50;;;;;;;18.77;13.90;;;;;;;;;;5025460;28;20436;-63
2022/04/23 04:34:16;;;;;;;16.67;13.30;;;;;;;;;;5032916;28;20501;-64
2022/04/23 04:36:42;;;;;;;17.42;13.38;;;;;;;;;;5034106;28;20423;-64
2022/04/23 04:39:08;;;;;;;15.90;13.40;;;;;;;;;;5022879;28;20423;-64
2022/04/23 04:41:35;;;;;;;17.00;13.35;;;;;;;;;;5023560;28;20464;-64
2022/04/23 04:44:02;;;;;;;18.35;13.80;;;;;;;;;;5027097;28;20442;-63
2022/04/23 04:46:28;;;;;;;17.98;13.48;;;;;;;;;;5026282;28;20420;-63
2022/04/23 04:48:53;;;;;;;17.13;13.70;;;8.90;99.90;;;;;;5020174;28;20427;-64
2022/04/23 04:51:20;;;;;;;18.00;14.25;;;;;;;;;;5033283;28;20473;-64
2022/04/23 04:53:46;;;;;;;17.57;14.47;;;;;;;;;;5026039;28;20510;-64
2022/04/23 04:56:12;;;;;;;17.80;15.02;;;;;;;;;;5028383;28;20415;-63
2022/04/23 04:58:38;;;;;;;17.58;13.55;;;;;;;;;;5019074;28;20428;-63
2022/04/23 05:01:04;;;;;;;18.98;13.73;;;;;;;;;;5029758;28;20525;-63
2022/04/23 05:03:30;;;;;;;17.88;13.90;;;;;;;;;;5014472;28;20423;-63
2022/04/23 05:05:56;;;;;;;15.13;13.18;;;;;;;;;;5030639;28;20804;-63
2022/04/23 05:08:22;;;;;;;16.67;13.38;;;;;;;;;;5018808;28;20409;-63
2022/04/23 05:10:48;;;;;;;15.40;13.23;;;;;;;;;;5022257;28;20446;-63
2022/04/23 05:13:14;;;;;;;16.43;13.43;;;;;;;;;;5029481;28;20453;-63
2022/04/23 05:15:40;;;;;;;15.80;12.85;;;;;;;;;;5028949;28;20427;-64
2022/04/23 05:18:06;;;;;;;14.77;12.40;;;;;;;;;;5026984;28;20440;-64
2022/04/23 05:20:32;;;;;;;15.43;12.53;;;9.20;99.90;;;;;;5034076;28;20455;-64
2022/04/23 05:22:58;;;;;;;16.97;12.70;;;;;;;;;;5027890;28;20523;-64
2022/04/23 05:25:24;;;;;;;15.82;12.68;;;;;;;;;;5028212;28;20446;-65
2022/04/23 05:27:50;;;;;;;15.73;12.65;;;;;;;;;;5022704;28;20419;-64
2022/04/23 05:30:16;;;;;;;13.93;11.90;;;;;;;;;;5034169;28;20427;-64
2022/04/23 05:32:43;;;;;;;14.75;12.73;;;;;;;;;;5030494;28;20423;-65
2022/04/23 05:35:09;;;;;;;14.50;11.85;;;;;;;;;;5035510;28;20442;-64
2022/04/23 05:37:35;;;;;;;15.30;12.48;;;;;;;;;;5031017;28;20435;-64
2022/04/23 05:40:01;;;;;;;15.55;12.32;;;;;;;;;;5023701;28;20521;-64
2022/04/23 05:42:27;;;;;;;16.17;12.75;;;;;;;;;;5028668;28;20419;-64
2022/04/23 05:44:53;;;;;;;14.15;12.40;;;;;;;;;;5002589;28;20464;-66
2022/04/23 05:47:19;;;;;;;15.48;12.20;;;;;;;;;;5035433;28;20783;-65
2022/04/23 05:49:45;;;;;;;15.17;12.83;;;;;;;;;;5013159;28;20496;-64
2022/04/23 05:52:11;;;;;;;15.35;12.25;;;;;;;;;;5029874;28;20867;-65
2022/04/23 05:54:37;;;;;;;14.20;12.35;;;;;;;;;;5023955;28;20439;-64
2022/04/23 05:57:04;;;;;;;16.33;12.13;;;;;;;;;;5030048;28;20463;-64
2022/04/23 05:59:31;;;;;;;13.43;12.00;;;;;;;;;;5029987;28;20426;-64
2022/04/23 06:01:57;;;;;;;15.23;11.60;;;;;;;;;;5028854;28;20477;-65
2022/04/23 06:04:25;;;;;;;15.25;12.05;;;;;;;;;;5016150;28;20421;-61
2022/04/23 06:06:51;;;;;;;14.23;11.43;;;;;;;;;;5026734;28;20437;-66
2022/04/23 06:09:18;;;;;;;13.40;11.55;;;;;;;;;;5026905;28;20425;-66
2022/04/23 06:11:44;;;;;;;15.25;11.80;;;;;;;;;;5020723;28;20499;-64
2022/04/23 06:14:10;;;;;;;14.27;11.73;;;;;;;;;;5014414;28;20526;-65
2022/04/23 06:16:37;;;;;;;13.93;11.55;;;;;;;;;;5030301;28;20422;-64
2022/04/23 06:19:04;;;;;;;13.57;11.55;;;;;;;;;;5029024;28;20526;-65
2022/04/23 06:21:30;;;;;;;12.80;10.97;;;;;;;;;;5038002;28;20455;-64
2022/04/23 06:23:56;;;;;;;13.95;11.38;;;;;;;;;;5021372;28;20502;-65
2022/04/23 06:26:22;;;;;;;12.88;11.15;;;;;;;;;;5017420;28;20420;-65
2022/04/23 06:28:48;;;;;;;14.52;11.80;;;;;;;;;;5031486;28;20485;-64
2022/04/23 06:31:15;;;;;;;15.77;11.05;;;;;;;;;;5036173;28;20446;-65
2022/04/23 06:33:44;;;;;;;13.43;11.70;;;;;;;;;;5028359;28;20430;-66
2022/04/23 06:36:10;;;;;;;13.25;11.55;;;;;;;;;;5022694;28;20425;-65
2022/04/23 06:38:36;;;;;;;14.27;11.02;;;;;;;;;;5026322;28;20424;-64
2022/04/23 06:41:02;;;;;;;14.60;11.68;;;10.70;99.90;;;;;;5029405;28;20444;-65
2022/04/23 06:43:28;;;;;;;15.63;10.90;;;;;;;;;;5022783;28;20418;-65
2022/04/23 06:45:54;;;;;;;16.20;11.17;;;10.70;99.90;;;;;;5031921;28;20423;-64
2022/04/23 06:48:20;;;;;;;14.63;11.17;;;;;;;;;;5022627;28;20506;-64
2022/04/23 06:50:46;;;;;;;13.00;11.52;;;;;;;;;;5025678;28;20489;-63
2022/04/23 06:53:12;;;;;;;14.48;11.02;;;;;;;;;;5029850;28;20419;-64
2022/04/23 06:55:38;;;;;;;15.23;11.88;;;;;;;;;;5027515;28;20435;-63
2022/04/23 06:58:04;;;;;;;13.45;11.70;;;;;;;;;;5028745;28;20415;-64
2022/04/23 07:00:31;;;;;;;12.93;11.57;;;;;;;;;;5021864;28;20532;-63
2022/04/23 07:02:57;;;;;;;13.83;11.17;;;;;;;;;;5020503;28;20463;-62
2022/04/23 07:05:23;;;;;;;13.95;11.35;;;;;;;;;;5031641;28;20472;-64
2022/04/23 07:07:56;;;;;;;14.85;11.38;;;;;;;;;;5024920;28;20428;-63
2022/04/23 07:10:23;;;;;;;13.23;10.93;;;;;;;;;;5018192;28;20441;-64
2022/04/23 07:12:49;;;;;;;13.63;10.97;;;;;;;;;;5026075;28;20423;-64
2022/04/23 07:15:15;;;;;;;14.90;11.80;;;;;;;;;;5025119;28;20447;-65
2022/04/23 07:17:41;;;;;;;13.77;11.25;;;;;;;;;;5028372;28;20420;-65
2022/04/23 07:20:08;;;;;;;14.57;11.70;;;;;;;;;;5023254;28;20420;-63
2022/04/23 07:22:34;;;;;;;13.30;11.25;;;;;;;;;;5014493;28;20460;-64
2022/04/23 07:25:00;;;;;;;13.18;11.10;;;;;;;;;;5022248;28;20445;-64
2022/04/23 07:27:27;;;;;;;13.05;11.10;;;;;;;;;;5028275;28;20419;-64
2022/04/23 07:29:53;;;;;;;13.18;10.65;;;12.00;99.90;;;;;;5026054;28;20423;-64
2022/04/23 07:32:21;;;;;;;14.70;11.02;;;;;;;;;;5033604;28;20442;-65
2022/04/23 07:37:49;;;;;;;14.13;11.30;;;;;;;;;;5027252;28;20858;-63
2022/04/23 07:40:15;;;;;;;14.45;11.23;;;;;;;;;;5022920;28;20456;-64
2022/04/23 07:42:41;;;;;;;16.00;11.40;;;;;;;;;;5021916;28;20431;-64
2022/04/23 07:45:09;;;;;;;14.60;11.23;;;;;;;;;;5022441;28;20477;-64
2022/04/23 07:47:35;;;;;;;12.68;10.85;;;;;;;;;;5018480;28;20882;-64
2022/04/23 07:50:01;;;;;;;15.63;11.07;;;;;;;;;;5009536;28;20867;-64
2022/04/23 07:52:28;;;;;;;13.70;10.75;;;;;;;;;;5006034;28;20431;-65
2022/04/23 07:54:54;;;;;;;14.13;11.10;;;;;;;;;;5024316;28;20760;-63
2022/04/23 07:57:23;;;;;;;13.43;10.75;;;;;;;;;;5031616;28;20466;-64
2022/04/23 07:59:50;;;;;;;12.77;10.65;;;;;;;;;;5027334;28;20428;-65
2022/04/23 08:02:16;;;;;;;13.57;10.13;;;;;;;;;;5023097;28;20435;-64
2022/04/23 08:04:42;;;;;;;13.75;10.80;;;;;;;;;;5033597;28;20515;-65
2022/04/23 08:07:09;;;;;;;21.53;10.60;;;;;;;;;;5022078;28;20465;-65
2022/04/23 08:09:39;;;;;;;11.85;10.55;;;;;;;;;;5019093;28;20428;-64
2022/04/23 08:12:08;;;;;;;11.87;10.37;;;;;;;;;;5028079;28;20429;-64
2022/04/23 08:14:35;;;;;;;14.75;10.90;;;;;;;;;;5027841;28;20491;-65
2022/04/23 08:17:01;;;;;;;14.18;10.38;;;;;;;;;;5028473;28;20418;-65
2022/04/23 08:19:27;;;;;;;14.27;10.43;;;;;;;;;;5020727;28;20435;-65
2022/04/23 08:21:53;;;;;;;15.55;10.10;;;;;;;;;;5014684;28;20433;-65
2022/04/23 08:24:19;;;;;;;20.02;10.15;;;14.00;99.90;;;;;;5018167;28;20910;-64
2022/04/23 08:26:45;;;;;;;14.27;10.73;;;;;;;;;;5022331;28;20439;-64
2022/04/23 08:31:56;;;;;;;21.97;11.00;;;;;;;;;;5029075;28;20453;-66
2022/04/23 08:34:22;;;;;;;15.30;9.85;;;;;;;;;;5009356;28;20795;-65
2022/04/23 08:36:50;;;;;;;10.98;9.48;;;;;;;;;;5016261;28;20515;-65
2022/04/23 08:39:16;;;;;;;15.43;10.05;;;;;;;;;;5017105;28;20424;-66
2022/04/23 08:41:47;;;;;;;16.85;9.23;;;14.40;99.90;;;;;;5016166;28;20456;-64
2022/04/23 08:44:13;;;;;;;13.60;9.60;;;14.50;99.90;;;;;;5024319;28;20451;-65
2022/04/23 08:46:40;;;;;;;13.95;9.70;;;;;;;;;;5026870;28;20424;-65
2022/04/23 08:49:11;;;;;;;15.10;9.48;;;;;;;;;;5015362;28;20750;-65
2022/04/23 08:51:38;;;;;;;19.38;10.02;;;;;;;;;;5016171;28;20750;-65
2022/04/23 08:54:08;;;;;;;20.35;10.25;;;;;;;;;;5020290;28;20435;-64
2022/04/23 08:56:36;;;;;;;14.10;9.70;;;;;;;;;;5028029;28;20427;-65
2022/04/23 08:59:03;;;;;;;17.23;9.82;;;;;;;;;;5025725;28;20494;-64
2022/04/23 09:01:32;;;;;;;17.75;9.50;;;;;;;;;;5024467;28;22281;-65
2022/04/23 09:03:58;;;;;;;13.95;9.73;;;;;;;;;;5035074;28;20434;-65
2022/04/23 09:06:27;;;;;;;15.55;9.57;;;14.60;99.90;;;;;;5025632;28;20444;-65
2022/04/23 09:09:13;;;;;;;18.58;10.00;;;;;;;;;;5034092;28;20546;-65
2022/04/23 09:11:41;;;;;;;12.00;9.68;;;14.70;99.90;;;;;;5029314;28;20428;-66
2022/04/23 09:14:08;;;;;;;14.95;10.50;;;;;;;;;;5031021;28;20438;-65
2022/04/23 09:25:04;;;;;;;15.03;10.40;;;;;;;;;;5028277;28;20610;-65
2022/04/23 09:27:31;;;;;;;15.43;10.00;;;;;;;;;;5015874;28;21220;-65
2022/04/23 09:29:58;;;;;;;12.25;10.48;;;;;;;;;;5029802;28;20462;-65
2022/04/23 09:32:27;;;;;;;12.93;10.02;;;;;;;;;;5025794;28;20435;-64
2022/04/23 09:35:06;;;;;;;13.80;9.95;;;15.30;99.90;;;;;;5019434;28;21173;-64
2022/04/23 09:38:11;;;;;;;17.90;9.60;;;;;;;;;;5030600;28;20427;-64
2022/04/23 09:40:27;;;;;;;13.00;9.80;;;;;;;;;;5016964;28;20934;-65
2022/04/23 09:43:00;;;;;;;11.02;9.85;;;;;;;;;;5020558;28;20505;-64
2022/04/23 09:45:28;;;;;;;10.77;8.88;;;;;;;;;;5025731;28;20460;-64
2022/04/23 09:47:55;;;;;;;12.07;9.23;;;;;;;;;;5026709;28;21326;-65
2022/04/23 09:50:21;;;;;;;11.27;9.45;;;;;;;;;;5028968;28;20448;-64
2022/04/23 09:52:49;;;;;;;11.03;9.77;;;;;;;;;;5025052;28;20463;-65
2022/04/23 09:55:16;;;;;;;13.75;9.60;;;;;;;;;;5014870;28;20446;-64
2022/04/23 09:57:45;;;;;;;12.30;10.00;;;;;;;;;;5003856;28;20491;-64
2022/04/23 10:00:12;;;;;;;11.95;9.43;;;;;;;;;;5006386;28;20514;-65
2022/04/23 10:02:38;;;;;;;13.35;10.27;;;;;;;;;;5008069;28;20439;-65
2022/04/23 10:05:05;;;;;;;12.88;10.02;;;;;;;;;;5013150;28;20966;-64
2022/04/23 10:07:34;;;;;;;13.65;10.35;;;15.60;99.90;;;;;;5013680;28;20436;-64
2022/04/23 10:10:03;;;;;;;12.20;9.77;;;;;;;;;;5012863;28;20437;-65
2022/04/23 10:12:33;;;;;;;12.85;10.18;;;;;;;;;;5008020;28;20441;-65
2022/04/23 10:15:00;;;;;;;14.90;9.88;;;;;;;;;;5010728;28;20442;-65
2022/04/23 10:17:29;;;;;;;13.50;10.37;;;;;;;;;;5023956;28;20442;-65
2022/04/23 10:20:00;;;;;;;20.15;10.38;;;;;;;;;;5008017;28;21104;-65
2022/04/23 10:22:39;;;;;;;14.95;10.38;;;;;;;;;;5013640;28;20446;-66
2022/04/23 10:25:08;;;;;;;18.08;10.07;;;;;;;;;;5014204;28;21170;-65
2022/04/23 10:27:34;;;;;;;13.63;9.23;;;;;;;;;;5006779;28;20416;-64
2022/04/23 10:30:03;;;;;;;12.32;9.38;;;;;;;;;;5029182;28;20428;-65
2022/04/23 10:32:41;;;;;;;12.70;9.40;;;16.70;99.90;;;;;;5024522;28;20438;-66
2022/04/23 10:35:20;;;;;;;13.85;9.38;;;;;;;;;;5022979;28;20653;-65
2022/04/23 10:37:50;;;;;;;10.32;9.20;;;;;;;;;;5011478;28;20519;-65
2022/04/23 10:40:18;;;;;;;12.93;9.60;;;;;;;;;;5007814;28;20428;-66
2022/04/23 10:43:03;;;;;;;14.85;9.57;;;;;;;;;;5023556;28;20452;-66
2022/04/23 10:45:32;;;;;;;16.40;10.15;;;;;;;;;;5023728;28;20429;-65
2022/04/23 10:48:18;;;;;;;12.65;9.90;;;;;;;;;;5021025;28;20444;-64
2022/04/23 10:51:00;;;;;;;13.95;9.98;;;;;;;;;;5019203;28;20452;-65
2022/04/23 10:53:29;;;;;;;10.68;9.48;;;;;;;;;;5025370;28;20469;-65
2022/04/23 10:56:10;;;;;;;12.63;9.37;;;;;;;;;;5022616;28;20442;-65
2022/04/23 10:58:38;;;;;;;14.02;10.10;;;;;;;;;;5030031;28;20441;-65
2022/04/23 11:01:20;;;;;;;14.10;10.10;;;;;;;;;;5016573;28;20507;-64
2022/04/23 11:03:59;;;;;;;12.57;10.10;;;;;;;;;;5021256;28;21015;-65
2022/04/23 11:12:20;;;;;;;12.13;9.30;;;;;;;;;;5025270;28;20421;-65
2022/04/23 11:14:49;;;;;;;13.65;9.32;;;;;;;;;;4997314;28;20497;-64
2022/04/23 11:17:19;;;;;;;12.50;8.73;;;;;;;;;;5017870;28;20491;-65
2022/04/23 11:19:45;;;;;;;12.67;9.40;;;;;;;;;;5017596;28;20448;-65
2022/04/23 11:22:12;;;;;;;15.18;8.93;;;16.70;99.90;;;;;;5026073;28;20526;-65
2022/04/23 11:24:38;;;;;;;16.38;9.57;;;;;;;;;;5028091;28;20932;-66
2022/04/23 11:27:04;;;;;;;12.93;9.40;;;;;;;;;;5012003;28;20440;-65
2022/04/23 11:29:30;;;;;;;13.32;8.80;;;;;;;;;;5019883;28;20507;-65
2022/04/23 11:31:57;;;;;;;12.30;9.13;;;;;;;;;;5022831;28;20439;-65
2022/04/23 11:34:23;;;;;;;10.77;8.70;;;;;;;;;;5023474;28;20458;-65
2022/04/23 11:36:49;;;;;;;17.23;9.73;;;;;;;;;;5015292;28;20568;-65
2022/04/23 11:39:15;;;;;;;11.20;9.30;;;;;;;;;;5016916;28;20904;-65
2022/04/23 11:41:43;;;;;;;11.48;8.77;;;;;;;;;;5022533;28;20430;-65
2022/04/23 11:44:12;;;;;;;11.90;9.13;;;;;;;;;;5018748;28;20425;-65
2022/04/23 11:46:48;;;;;;;10.55;8.32;;;;;;;;;;5009163;28;20429;-65
2022/04/23 11:49:29;;;;;;;10.95;8.57;;;;;;;;;;5006790;28;20447;-66
2022/04/23 11:52:01;;;;;;;9.50;7.82;;;;;;;;;;5013183;28;20932;-63
2022/04/23 11:54:37;;;;;;;12.63;8.13;;;;;;;;;;5016664;28;20527;-63
2022/04/23 11:57:04;;;;;;;11.60;7.93;;;;;;;;;;5020759;28;20477;-65
2022/04/23 11:59:43;;;;;;;12.32;8.63;;;;;;;;;;5019106;28;20429;-64
2022/04/23 12:02:23;;;;;;;14.07;8.73;;;;;;;;;;4992801;28;20514;-64
2022/04/23 12:05:00;;;;;;;16.25;8.63;;;;;;;;;;5021196;28;20450;-64
2022/04/23 12:07:26;;;;;;;11.20;8.13;;;;;;;;;;5017656;28;20512;-64
2022/04/23 12:09:56;;;;;;;10.43;8.10;;;;;;;;;;5020541;28;20529;-64
2022/04/23 12:12:25;;;;;;;11.65;8.65;;;;;;;;;;5012652;28;20432;-65
2022/04/23 12:14:59;;;;;;;10.10;8.60;;;17.90;99.90;;;;;;5018560;28;20528;-64
2022/04/23 12:17:42;;;;;;;13.07;8.95;;;17.50;99.90;;;;;;5013377;28;20796;-64
2022/04/23 12:20:10;;;;;;;10.95;8.52;;;17.70;99.90;;;;;;5003217;28;21181;-63
2022/04/23 12:22:36;;;;;;;12.38;8.50;;;;;;;;;;5009324;28;20775;-64
2022/04/23 12:25:07;;;;;;;17.38;8.30;;;17.40;99.90;;;;;;5021917;28;20451;-64
2022/04/23 12:27:52;;;;;;;11.98;8.60;;;;;;;;;;5009546;28;20463;-64
2022/04/23 12:41:35;;;;;;;8.57;7.20;;;;;;;;;;5007038;28;20444;-63
2022/04/23 12:44:17;;;;;;;14.93;7.13;;;;;;;;;;5014773;28;20422;-64
2022/04/23 12:46:53;;;;;;;15.57;8.03;;;;;;;;;;5014135;28;20467;-63
2022/04/23 12:49:21;;;;;;;10.05;7.32;;;;;;;;;;5015665;28;20503;-64
2022/04/23 12:51:54;;;;;;;10.35;7.60;;;18.20;99.20;;;;;;5014404;28;20432;-64
2022/04/23 12:54:24;;;;;;;10.88;7.15;;;;;;;;;;5017424;28;20487;-64
2022/04/23 12:56:51;;;;;;;9.07;7.05;;;;;;;;;;5013040;28;20507;-64
2022/04/23 12:59:17;;;;;;;9.98;7.10;;;;;;;;;;5009522;28;20432;-64
2022/04/23 13:01:43;;;;;;;11.38;7.45;;;;;;;;;;5014782;28;20594;-65
2022/04/23 13:04:11;;;;;;;10.38;7.20;;;;;;;;;;5014488;28;20461;-64
2022/04/23 13:09:24;;;;;;;11.13;6.57;;;18.10;96.40;;;;;;5010178;28;20500;-64
2022/04/23 13:11:51;;;;;;;12.03;7.00;;;;;;;;;;5033922;28;20449;-64
2022/04/23 13:14:17;;;;;;;14.30;7.00;;;;;;;;;;5020206;28;20444;-64
2022/04/23 13:16:44;;;;;;;10.25;6.80;;;;;;;;;;5023455;28;20419;-64
2022/04/23 13:19:10;;;;;;;15.43;6.68;;;18.10;97.30;;;;;;5019069;28;20416;-64
2022/04/23 13:21:36;;;;;;;9.48;6.75;;;18.20;97.50;;;;;;5013793;28;20459;-64
2022/04/23 13:24:03;;;;;;;9.07;6.97;;;;;;;;;;5018500;28;20437;-64
2022/04/23 13:26:29;;;;;;;9.93;7.07;;;;;;;;;;5025886;28;20439;-65
2022/04/23 13:28:56;;;;;;;10.15;7.45;;;;;;;;;;5032212;28;20425;-63
2022/04/23 13:31:22;;;;;;;11.65;6.90;;;;;;;;;;5023625;28;20440;-64
2022/04/23 13:33:49;;;;;;;11.90;7.10;;;;;;;;;;5022006;28;20461;-64
2022/04/23 13:36:15;;;;;;;10.73;6.85;;;;;;;;;;5007863;28;20561;-63
2022/04/23 13:38:41;;;;;;;9.25;7.00;;;;;;;;;;5022633;28;20419;-64
2022/04/23 13:41:13;;;;;;;14.52;6.75;;;;;;;;;;5031537;28;20431;-64
2022/04/23 13:43:39;;;;;;;12.77;6.80;;;;;;;;;;5026017;28;20530;-64
2022/04/23 13:46:06;;;;;;;11.32;6.43;;;;;;;;;;5007945;28;20441;-63
2022/04/23 13:48:32;;;;;;;10.68;6.70;;;;;;;;;;5018434;28;20415;-64
2022/04/23 13:50:58;;;;;;;9.77;6.28;;;;;;;;;;5021027;28;20419;-64
2022/04/23 13:53:24;;;;;;;10.67;6.43;;;18.10;96.80;;;;;;5022706;28;20425;-63
2022/04/23 13:55:50;;;;;;;10.73;6.53;;;;;;;;;;5025978;28;20411;-64
2022/04/23 13:58:16;;;;;;;11.30;6.93;;;;;;;;;;5026917;28;20450;-64
2022/04/23 14:00:43;;;;;;;10.50;6.63;;;;;;;;;;5011190;28;20435;-64
2022/04/23 14:11:24;;;;;;;8.57;5.72;;;;;;;;;;5016239;28;20416;-63
2022/04/23 14:13:51;;;;;;;8.38;5.68;;;;;;;;;;5011822;28;20433;-63
2022/04/23 14:16:17;;;;;;;10.73;5.90;;;;;;;;;;5025922;28;20427;-64
2022/04/23 14:18:43;;;;;;;9.27;5.35;;;;;;;;;;5027032;28;20434;-63
2022/04/23 14:21:09;;;;;;;10.02;5.25;;;;;;;;;;5011842;28;20884;-63
2022/04/23 14:23:36;;;;;;;8.82;5.00;;;;;;;;;;5009765;28;20436;-63
2022/04/23 14:26:02;;;;;;;10.68;5.32;;;;;;;;;;5013464;28;20455;-63
2022/04/23 14:28:28;;;;;;;10.13;5.47;;;;;;;;;;5021298;28;20495;-63
2022/04/23 14:30:54;;;;;;;8.50;5.03;;;;;;;;;;5023995;28;20435;-63
2022/04/23 14:33:20;;;;;;;8.35;5.32;;;;;;;;;;5018030;28;20432;-63
2022/04/23 14:35:46;;;;;;;13.35;5.53;;;;;;;;;;5023235;28;20425;-63
2022/04/23 14:38:12;;;;;;;10.07;5.72;;;;;;;;;;5031173;28;20515;-63
2022/04/23 14:40:38;;;;;;;8.27;5.22;;;;;;;;;;5020564;28;20424;-63
2022/04/23 14:43:05;;;;;;;10.55;5.10;;;;;;;;;;5022269;28;20424;-63
2022/04/23 14:45:31;;;;;;;9.73;4.90;;;17.80;95.70;;;;;;5027092;28;20419;-63
2022/04/23 14:47:58;;;;;;;9.82;5.00;;;;;;;;;;5022683;28;20505;-63
2022/04/23 14:50:24;;;;;;;9.13;4.95;;;;;;;;;;5029245;28;21072;-62
2022/04/23 14:55:35;;;;;;;8.02;5.10;;;;;;;;;;5016850;28;20459;-61
2022/04/23 14:58:01;;;;;;;9.50;5.47;;;;;;;;;;5015253;28;20428;-63
2022/04/23 15:00:27;;;;;;;8.90;5.10;;;;;;;;;;5025336;28;20471;-63